sensor_id;sensor_type;location;lat;lon;timestamp;temperature;humidity
67147;DHT22;70072;52.036;5.558;2024-03-08T00:00:16;17.50;63.60
67147;DHT22;70072;52.036;5.558;2024-03-08T00:02:44;17.50;63.60
67147;DHT22;70072;52.036;5.558;2024-03-08T00:05:11;17.40;63.50
67147;DHT22;70072;52.036;5.558;2024-03-08T00:07:39;17.40;63.50
67147;DHT22;70072;52.036;5.558;2024-03-08T00:10:12;17.40;63.50
67147;DHT22;70072;52.036;5.558;2024-03-08T00:12:43;17.40;63.50
67147;DHT22;70072;52.036;5.558;2024-03-08T00:15:13;17.40;63.50
67147;DHT22;70072;52.036;5.558;2024-03-08T00:17:40;17.40;63.50
67147;DHT22;70072;52.036;5.558;2024-03-08T00:20:09;17.40;63.50
67147;DHT22;70072;52.036;5.558;2024-03-08T00:22:36;17.40;63.40
67147;DHT22;70072;52.036;5.558;2024-03-08T00:25:02;17.40;63.50
67147;DHT22;70072;52.036;5.558;2024-03-08T00:27:28;17.40;63.40
67147;DHT22;70072;52.036;5.558;2024-03-08T00:29:58;17.40;63.50
67147;DHT22;70072;52.036;5.558;2024-03-08T00:32:26;17.40;63.40
67147;DHT22;70072;52.036;5.558;2024-03-08T00:34:54;17.40;63.40
67147;DHT22;70072;52.036;5.558;2024-03-08T00:37:21;17.40;63.40
67147;DHT22;70072;52.036;5.558;2024-03-08T00:39:50;17.40;63.40
67147;DHT22;70072;52.036;5.558;2024-03-08T00:42:22;17.40;63.40
67147;DHT22;70072;52.036;5.558;2024-03-08T00:44:48;17.40;63.40
67147;DHT22;70072;52.036;5.558;2024-03-08T00:47:16;17.40;63.40
67147;DHT22;70072;52.036;5.558;2024-03-08T00:49:42;17.40;63.40
67147;DHT22;70072;52.036;5.558;2024-03-08T00:52:08;17.40;63.40
67147;DHT22;70072;52.036;5.558;2024-03-08T00:54:36;17.40;63.40
67147;DHT22;70072;52.036;5.558;2024-03-08T00:57:03;17.40;63.40
67147;DHT22;70072;52.036;5.558;2024-03-08T00:59:29;17.40;63.40
67147;DHT22;70072;52.036;5.558;2024-03-08T01:01:56;17.40;63.40
67147;DHT22;70072;52.036;5.558;2024-03-08T01:04:22;17.40;63.40
67147;DHT22;70072;52.036;5.558;2024-03-08T01:06:48;17.30;63.30
67147;DHT22;70072;52.036;5.558;2024-03-08T01:09:14;17.30;63.30
67147;DHT22;70072;52.036;5.558;2024-03-08T01:11:45;17.30;63.30
67147;DHT22;70072;52.036;5.558;2024-03-08T01:14:10;17.30;63.30
67147;DHT22;70072;52.036;5.558;2024-03-08T01:16:36;17.30;63.30
67147;DHT22;70072;52.036;5.558;2024-03-08T01:19:02;17.30;63.30
67147;DHT22;70072;52.036;5.558;2024-03-08T01:21:29;17.30;63.30
67147;DHT22;70072;52.036;5.558;2024-03-08T01:23:56;17.30;63.30
67147;DHT22;70072;52.036;5.558;2024-03-08T01:29:46;17.30;63.30
67147;DHT22;70072;52.036;5.558;2024-03-08T01:32:12;17.30;63.30
67147;DHT22;70072;52.036;5.558;2024-03-08T01:34:40;17.30;63.30
67147;DHT22;70072;52.036;5.558;2024-03-08T01:37:06;17.30;63.30
67147;DHT22;70072;52.036;5.558;2024-03-08T01:39:32;17.30;63.30
67147;DHT22;70072;52.036;5.558;2024-03-08T01:41:58;17.30;63.30
67147;DHT22;70072;52.036;5.558;2024-03-08T01:44:24;17.30;63.30
67147;DHT22;70072;52.036;5.558;2024-03-08T01:46:51;17.30;63.20
67147;DHT22;70072;52.036;5.558;2024-03-08T01:49:18;17.30;63.20
67147;DHT22;70072;52.036;5.558;2024-03-08T01:51:47;17.20;63.20
67147;DHT22;70072;52.036;5.558;2024-03-08T01:54:15;17.30;63.30
67147;DHT22;70072;52.036;5.558;2024-03-08T01:56:42;17.30;63.30
67147;DHT22;70072;52.036;5.558;2024-03-08T01:59:08;17.30;63.30
67147;DHT22;70072;52.036;5.558;2024-03-08T02:01:34;17.20;63.20
67147;DHT22;70072;52.036;5.558;2024-03-08T02:04:00;17.20;63.20
67147;DHT22;70072;52.036;5.558;2024-03-08T02:06:26;17.20;63.20
67147;DHT22;70072;52.036;5.558;2024-03-08T02:08:53;17.30;63.20
67147;DHT22;70072;52.036;5.558;2024-03-08T02:11:19;17.20;63.20
67147;DHT22;70072;52.036;5.558;2024-03-08T02:13:49;17.30;63.20
67147;DHT22;70072;52.036;5.558;2024-03-08T02:16:21;17.20;63.20
67147;DHT22;70072;52.036;5.558;2024-03-08T02:18:52;17.20;63.20
67147;DHT22;70072;52.036;5.558;2024-03-08T02:21:18;17.20;63.20
67147;DHT22;70072;52.036;5.558;2024-03-08T02:23:46;17.20;63.20
67147;DHT22;70072;52.036;5.558;2024-03-08T02:26:16;17.20;63.10
67147;DHT22;70072;52.036;5.558;2024-03-08T02:28:43;17.20;63.10
67147;DHT22;70072;52.036;5.558;2024-03-08T02:31:10;17.20;63.10
67147;DHT22;70072;52.036;5.558;2024-03-08T02:33:38;17.20;63.10
67147;DHT22;70072;52.036;5.558;2024-03-08T02:36:05;17.20;63.10
67147;DHT22;70072;52.036;5.558;2024-03-08T02:38:33;17.20;63.20
67147;DHT22;70072;52.036;5.558;2024-03-08T02:40:58;17.20;63.10
67147;DHT22;70072;52.036;5.558;2024-03-08T02:43:24;17.20;63.20
67147;DHT22;70072;52.036;5.558;2024-03-08T02:45:51;17.10;63.70
67147;DHT22;70072;52.036;5.558;2024-03-08T02:48:38;17.20;63.10
67147;DHT22;70072;52.036;5.558;2024-03-08T02:51:08;17.10;63.00
67147;DHT22;70072;52.036;5.558;2024-03-08T02:53:36;17.20;63.10
67147;DHT22;70072;52.036;5.558;2024-03-08T02:56:03;17.20;63.10
67147;DHT22;70072;52.036;5.558;2024-03-08T02:58:30;17.10;63.00
67147;DHT22;70072;52.036;5.558;2024-03-08T03:00:56;17.10;63.10
67147;DHT22;70072;52.036;5.558;2024-03-08T03:03:22;17.10;63.00
67147;DHT22;70072;52.036;5.558;2024-03-08T03:05:48;17.10;63.00
67147;DHT22;70072;52.036;5.558;2024-03-08T03:08:15;17.10;63.00
67147;DHT22;70072;52.036;5.558;2024-03-08T03:10:43;17.10;63.00
67147;DHT22;70072;52.036;5.558;2024-03-08T03:13:11;17.10;63.00
67147;DHT22;70072;52.036;5.558;2024-03-08T03:15:37;17.10;63.00
67147;DHT22;70072;52.036;5.558;2024-03-08T03:18:03;17.10;63.00
67147;DHT22;70072;52.036;5.558;2024-03-08T03:20:30;17.10;63.00
67147;DHT22;70072;52.036;5.558;2024-03-08T03:23:06;17.10;63.00
67147;DHT22;70072;52.036;5.558;2024-03-08T03:25:34;17.10;63.00
67147;DHT22;70072;52.036;5.558;2024-03-08T03:28:02;17.10;63.00
67147;DHT22;70072;52.036;5.558;2024-03-08T03:30:30;17.10;63.00
67147;DHT22;70072;52.036;5.558;2024-03-08T03:32:59;17.10;63.00
67147;DHT22;70072;52.036;5.558;2024-03-08T03:35:32;17.10;63.00
67147;DHT22;70072;52.036;5.558;2024-03-08T03:37:58;17.10;63.00
67147;DHT22;70072;52.036;5.558;2024-03-08T03:40:34;17.10;63.00
67147;DHT22;70072;52.036;5.558;2024-03-08T03:43:00;17.10;63.00
67147;DHT22;70072;52.036;5.558;2024-03-08T03:45:27;17.10;63.00
67147;DHT22;70072;52.036;5.558;2024-03-08T03:47:52;17.10;63.00
67147;DHT22;70072;52.036;5.558;2024-03-08T03:50:19;17.00;62.90
67147;DHT22;70072;52.036;5.558;2024-03-08T03:52:46;17.10;63.00
67147;DHT22;70072;52.036;5.558;2024-03-08T03:55:13;17.00;62.90
67147;DHT22;70072;52.036;5.558;2024-03-08T03:57:39;17.10;63.00
67147;DHT22;70072;52.036;5.558;2024-03-08T04:00:06;17.10;63.00
67147;DHT22;70072;52.036;5.558;2024-03-08T04:02:37;17.00;62.90
67147;DHT22;70072;52.036;5.558;2024-03-08T04:05:09;17.10;63.00
67147;DHT22;70072;52.036;5.558;2024-03-08T04:07:38;17.10;62.90
67147;DHT22;70072;52.036;5.558;2024-03-08T04:10:05;17.10;63.00
67147;DHT22;70072;52.036;5.558;2024-03-08T04:12:34;17.10;62.90
67147;DHT22;70072;52.036;5.558;2024-03-08T04:15:00;17.10;63.00
67147;DHT22;70072;52.036;5.558;2024-03-08T04:17:26;17.00;62.90
67147;DHT22;70072;52.036;5.558;2024-03-08T04:19:52;17.00;62.90
67147;DHT22;70072;52.036;5.558;2024-03-08T04:22:18;17.00;62.90
67147;DHT22;70072;52.036;5.558;2024-03-08T04:24:45;17.00;62.90
67147;DHT22;70072;52.036;5.558;2024-03-08T04:27:11;17.00;62.90
67147;DHT22;70072;52.036;5.558;2024-03-08T04:29:37;17.00;62.90
67147;DHT22;70072;52.036;5.558;2024-03-08T04:32:04;17.10;62.90
67147;DHT22;70072;52.036;5.558;2024-03-08T04:34:30;17.00;62.80
67147;DHT22;70072;52.036;5.558;2024-03-08T04:37:02;17.00;62.80
67147;DHT22;70072;52.036;5.558;2024-03-08T04:39:30;17.00;62.80
67147;DHT22;70072;52.036;5.558;2024-03-08T04:42:00;17.00;62.80
67147;DHT22;70072;52.036;5.558;2024-03-08T04:44:30;17.00;62.80
67147;DHT22;70072;52.036;5.558;2024-03-08T04:46:56;17.00;62.80
67147;DHT22;70072;52.036;5.558;2024-03-08T04:49:21;17.00;62.80
67147;DHT22;70072;52.036;5.558;2024-03-08T04:51:48;17.00;62.80
67147;DHT22;70072;52.036;5.558;2024-03-08T04:54:18;17.00;62.80
67147;DHT22;70072;52.036;5.558;2024-03-08T04:56:46;17.00;62.70
67147;DHT22;70072;52.036;5.558;2024-03-08T04:59:12;17.00;62.80
67147;DHT22;70072;52.036;5.558;2024-03-08T05:01:39;17.00;62.80
67147;DHT22;70072;52.036;5.558;2024-03-08T05:04:05;17.00;62.70
67147;DHT22;70072;52.036;5.558;2024-03-08T05:06:33;17.00;62.70
67147;DHT22;70072;52.036;5.558;2024-03-08T05:08:59;17.00;62.70
67147;DHT22;70072;52.036;5.558;2024-03-08T05:11:26;17.00;62.70
67147;DHT22;70072;52.036;5.558;2024-03-08T05:13:51;17.00;62.70
67147;DHT22;70072;52.036;5.558;2024-03-08T05:16:17;17.00;62.70
67147;DHT22;70072;52.036;5.558;2024-03-08T05:18:43;17.00;62.70
67147;DHT22;70072;52.036;5.558;2024-03-08T05:21:08;16.90;62.70
67147;DHT22;70072;52.036;5.558;2024-03-08T05:23:35;17.00;62.70
67147;DHT22;70072;52.036;5.558;2024-03-08T05:26:04;16.90;62.70
67147;DHT22;70072;52.036;5.558;2024-03-08T05:28:30;17.00;62.70
67147;DHT22;70072;52.036;5.558;2024-03-08T05:30:55;16.90;62.60
67147;DHT22;70072;52.036;5.558;2024-03-08T05:33:23;17.00;62.70
67147;DHT22;70072;52.036;5.558;2024-03-08T05:35:49;17.00;62.70
67147;DHT22;70072;52.036;5.558;2024-03-08T05:38:14;16.90;62.60
67147;DHT22;70072;52.036;5.558;2024-03-08T05:40:40;16.90;62.60
67147;DHT22;70072;52.036;5.558;2024-03-08T05:43:08;17.00;62.70
67147;DHT22;70072;52.036;5.558;2024-03-08T05:45:34;16.90;62.60
67147;DHT22;70072;52.036;5.558;2024-03-08T05:48:00;16.90;62.60
67147;DHT22;70072;52.036;5.558;2024-03-08T05:50:25;16.90;62.60
67147;DHT22;70072;52.036;5.558;2024-03-08T05:52:53;16.90;63.20
67147;DHT22;70072;52.036;5.558;2024-03-08T05:55:19;16.90;62.60
67147;DHT22;70072;52.036;5.558;2024-03-08T05:57:50;16.90;62.60
67147;DHT22;70072;52.036;5.558;2024-03-08T06:00:16;16.90;62.60
67147;DHT22;70072;52.036;5.558;2024-03-08T06:02:42;16.90;62.60
67147;DHT22;70072;52.036;5.558;2024-03-08T06:05:10;16.90;62.60
67147;DHT22;70072;52.036;5.558;2024-03-08T06:07:38;16.90;62.60
67147;DHT22;70072;52.036;5.558;2024-03-08T06:10:09;16.90;62.60
67147;DHT22;70072;52.036;5.558;2024-03-08T06:12:38;16.90;62.60
67147;DHT22;70072;52.036;5.558;2024-03-08T06:15:08;16.90;62.60
67147;DHT22;70072;52.036;5.558;2024-03-08T06:17:40;16.90;62.60
67147;DHT22;70072;52.036;5.558;2024-03-08T06:20:09;16.90;62.60
67147;DHT22;70072;52.036;5.558;2024-03-08T06:22:42;16.90;62.50
67147;DHT22;70072;52.036;5.558;2024-03-08T06:25:08;16.90;62.60
67147;DHT22;70072;52.036;5.558;2024-03-08T06:27:36;16.90;62.50
67147;DHT22;70072;52.036;5.558;2024-03-08T06:30:03;16.90;62.50
67147;DHT22;70072;52.036;5.558;2024-03-08T06:32:31;16.90;62.50
67147;DHT22;70072;52.036;5.558;2024-03-08T06:35:01;16.90;62.50
67147;DHT22;70072;52.036;5.558;2024-03-08T06:37:28;16.90;62.50
67147;DHT22;70072;52.036;5.558;2024-03-08T06:39:53;16.90;62.40
67147;DHT22;70072;52.036;5.558;2024-03-08T06:42:21;16.90;62.50
67147;DHT22;70072;52.036;5.558;2024-03-08T06:44:47;16.90;62.50
67147;DHT22;70072;52.036;5.558;2024-03-08T06:47:16;16.90;62.50
67147;DHT22;70072;52.036;5.558;2024-03-08T06:49:45;16.90;62.40
67147;DHT22;70072;52.036;5.558;2024-03-08T06:52:11;16.90;62.40
67147;DHT22;70072;52.036;5.558;2024-03-08T06:54:39;16.90;62.40
67147;DHT22;70072;52.036;5.558;2024-03-08T06:57:06;16.90;62.40
67147;DHT22;70072;52.036;5.558;2024-03-08T06:59:32;16.90;62.40
67147;DHT22;70072;52.036;5.558;2024-03-08T07:01:58;16.90;62.40
67147;DHT22;70072;52.036;5.558;2024-03-08T07:04:26;16.90;62.40
67147;DHT22;70072;52.036;5.558;2024-03-08T07:06:55;16.90;62.40
67147;DHT22;70072;52.036;5.558;2024-03-08T07:09:22;16.90;62.40
67147;DHT22;70072;52.036;5.558;2024-03-08T07:11:47;16.90;62.40
67147;DHT22;70072;52.036;5.558;2024-03-08T07:14:30;16.90;62.40
67147;DHT22;70072;52.036;5.558;2024-03-08T07:16:59;16.90;62.40
67147;DHT22;70072;52.036;5.558;2024-03-08T07:19:27;16.90;62.40
67147;DHT22;70072;52.036;5.558;2024-03-08T07:21:55;16.90;62.40
67147;DHT22;70072;52.036;5.558;2024-03-08T07:24:26;16.90;62.40
67147;DHT22;70072;52.036;5.558;2024-03-08T07:27:11;16.90;62.40
67147;DHT22;70072;52.036;5.558;2024-03-08T07:29:37;16.90;62.40
67147;DHT22;70072;52.036;5.558;2024-03-08T07:32:03;16.90;62.40
67147;DHT22;70072;52.036;5.558;2024-03-08T07:34:48;16.90;62.40
67147;DHT22;70072;52.036;5.558;2024-03-08T07:37:18;16.90;62.30
67147;DHT22;70072;52.036;5.558;2024-03-08T07:39:45;17.00;62.40
67147;DHT22;70072;52.036;5.558;2024-03-08T07:42:11;16.90;62.30
67147;DHT22;70072;52.036;5.558;2024-03-08T07:44:53;16.90;62.30
67147;DHT22;70072;52.036;5.558;2024-03-08T07:47:21;16.90;62.40
67147;DHT22;70072;52.036;5.558;2024-03-08T07:49:49;17.00;62.40
67147;DHT22;70072;52.036;5.558;2024-03-08T07:52:17;17.00;62.40
67147;DHT22;70072;52.036;5.558;2024-03-08T07:54:43;17.00;62.40
67147;DHT22;70072;52.036;5.558;2024-03-08T07:57:09;16.90;62.30
67147;DHT22;70072;52.036;5.558;2024-03-08T07:59:35;16.90;62.30
67147;DHT22;70072;52.036;5.558;2024-03-08T08:02:01;16.90;62.30
67147;DHT22;70072;52.036;5.558;2024-03-08T08:04:26;16.90;62.40
67147;DHT22;70072;52.036;5.558;2024-03-08T08:06:52;16.90;62.30
67147;DHT22;70072;52.036;5.558;2024-03-08T08:09:20;16.90;62.40
67147;DHT22;70072;52.036;5.558;2024-03-08T08:11:54;16.90;62.30
67147;DHT22;70072;52.036;5.558;2024-03-08T08:14:20;16.90;62.40
67147;DHT22;70072;52.036;5.558;2024-03-08T08:16:47;17.00;62.40
67147;DHT22;70072;52.036;5.558;2024-03-08T08:19:18;17.00;62.40
67147;DHT22;70072;52.036;5.558;2024-03-08T08:21:44;17.00;62.40
67147;DHT22;70072;52.036;5.558;2024-03-08T08:24:09;17.00;62.40
67147;DHT22;70072;52.036;5.558;2024-03-08T08:26:38;17.00;62.40
67147;DHT22;70072;52.036;5.558;2024-03-08T08:29:03;16.90;62.40
67147;DHT22;70072;52.036;5.558;2024-03-08T08:31:34;17.00;62.40
67147;DHT22;70072;52.036;5.558;2024-03-08T08:33:59;17.00;62.40
67147;DHT22;70072;52.036;5.558;2024-03-08T08:36:25;17.00;62.50
67147;DHT22;70072;52.036;5.558;2024-03-08T08:38:55;17.00;62.50
67147;DHT22;70072;52.036;5.558;2024-03-08T08:41:23;17.00;62.50
67147;DHT22;70072;52.036;5.558;2024-03-08T08:43:49;17.00;62.40
67147;DHT22;70072;52.036;5.558;2024-03-08T08:46:18;17.00;62.50
67147;DHT22;70072;52.036;5.558;2024-03-08T08:48:46;17.00;62.40
67147;DHT22;70072;52.036;5.558;2024-03-08T08:51:15;17.00;62.50
67147;DHT22;70072;52.036;5.558;2024-03-08T08:53:41;17.00;62.40
67147;DHT22;70072;52.036;5.558;2024-03-08T08:56:14;17.10;62.50
67147;DHT22;70072;52.036;5.558;2024-03-08T08:58:41;17.00;62.40
67147;DHT22;70072;52.036;5.558;2024-03-08T09:01:08;17.10;62.50
67147;DHT22;70072;52.036;5.558;2024-03-08T09:03:36;17.10;62.50
67147;DHT22;70072;52.036;5.558;2024-03-08T09:06:05;17.00;62.50
67147;DHT22;70072;52.036;5.558;2024-03-08T09:08:37;17.00;62.40
67147;DHT22;70072;52.036;5.558;2024-03-08T09:11:05;17.10;62.50
67147;DHT22;70072;52.036;5.558;2024-03-08T09:13:33;17.10;62.50
67147;DHT22;70072;52.036;5.558;2024-03-08T09:15:59;17.10;62.50
67147;DHT22;70072;52.036;5.558;2024-03-08T09:18:28;17.10;62.50
67147;DHT22;70072;52.036;5.558;2024-03-08T09:20:56;17.10;62.50
67147;DHT22;70072;52.036;5.558;2024-03-08T09:23:22;17.10;62.50
67147;DHT22;70072;52.036;5.558;2024-03-08T09:25:56;17.10;62.50
67147;DHT22;70072;52.036;5.558;2024-03-08T09:28:23;17.10;62.50
67147;DHT22;70072;52.036;5.558;2024-03-08T09:30:51;17.10;62.50
67147;DHT22;70072;52.036;5.558;2024-03-08T09:33:17;17.10;62.50
67147;DHT22;70072;52.036;5.558;2024-03-08T09:35:48;17.10;62.50
67147;DHT22;70072;52.036;5.558;2024-03-08T09:38:14;17.10;62.50
67147;DHT22;70072;52.036;5.558;2024-03-08T09:40:43;17.20;62.50
67147;DHT22;70072;52.036;5.558;2024-03-08T09:43:10;17.20;62.50
67147;DHT22;70072;52.036;5.558;2024-03-08T09:45:40;17.20;62.50
67147;DHT22;70072;52.036;5.558;2024-03-08T09:48:10;17.20;62.50
67147;DHT22;70072;52.036;5.558;2024-03-08T09:50:42;17.10;62.50
67147;DHT22;70072;52.036;5.558;2024-03-08T09:53:09;17.20;62.50
67147;DHT22;70072;52.036;5.558;2024-03-08T09:55:37;17.20;62.50
67147;DHT22;70072;52.036;5.558;2024-03-08T09:58:08;17.20;62.50
67147;DHT22;70072;52.036;5.558;2024-03-08T10:00:54;17.20;62.50
67147;DHT22;70072;52.036;5.558;2024-03-08T10:03:23;17.20;62.50
67147;DHT22;70072;52.036;5.558;2024-03-08T10:05:51;17.20;62.50
67147;DHT22;70072;52.036;5.558;2024-03-08T10:08:17;17.20;62.50
67147;DHT22;70072;52.036;5.558;2024-03-08T10:10:43;17.20;62.50
67147;DHT22;70072;52.036;5.558;2024-03-08T10:13:10;17.20;62.50
67147;DHT22;70072;52.036;5.558;2024-03-08T10:15:39;17.20;62.50
67147;DHT22;70072;52.036;5.558;2024-03-08T10:18:06;17.20;62.50
67147;DHT22;70072;52.036;5.558;2024-03-08T10:20:32;17.20;62.50
67147;DHT22;70072;52.036;5.558;2024-03-08T10:23:02;17.20;62.50
67147;DHT22;70072;52.036;5.558;2024-03-08T10:25:35;17.20;62.50
67147;DHT22;70072;52.036;5.558;2024-03-08T10:28:03;17.20;62.50
67147;DHT22;70072;52.036;5.558;2024-03-08T10:30:30;17.20;62.50
67147;DHT22;70072;52.036;5.558;2024-03-08T10:32:56;17.20;62.50
67147;DHT22;70072;52.036;5.558;2024-03-08T10:35:22;17.20;62.50
67147;DHT22;70072;52.036;5.558;2024-03-08T10:37:49;17.30;62.50
67147;DHT22;70072;52.036;5.558;2024-03-08T10:40:25;17.30;62.50
67147;DHT22;70072;52.036;5.558;2024-03-08T10:42:58;17.20;62.50
67147;DHT22;70072;52.036;5.558;2024-03-08T10:45:37;17.20;62.50
67147;DHT22;70072;52.036;5.558;2024-03-08T10:50:46;17.30;62.40
67147;DHT22;70072;52.036;5.558;2024-03-08T10:53:14;17.30;62.40
67147;DHT22;70072;52.036;5.558;2024-03-08T10:55:40;17.30;62.50
67147;DHT22;70072;52.036;5.558;2024-03-08T10:58:08;17.30;62.50
67147;DHT22;70072;52.036;5.558;2024-03-08T11:00:34;17.30;62.50
67147;DHT22;70072;52.036;5.558;2024-03-08T11:03:00;17.30;62.40
67147;DHT22;70072;52.036;5.558;2024-03-08T11:05:40;17.30;62.50
67147;DHT22;70072;52.036;5.558;2024-03-08T11:08:18;17.30;62.40
67147;DHT22;70072;52.036;5.558;2024-03-08T11:10:51;17.30;62.40
67147;DHT22;70072;52.036;5.558;2024-03-08T11:13:38;17.30;62.40
67147;DHT22;70072;52.036;5.558;2024-03-08T11:18:59;17.30;62.40
67147;DHT22;70072;52.036;5.558;2024-03-08T11:21:32;17.30;62.40
67147;DHT22;70072;52.036;5.558;2024-03-08T11:24:13;17.30;62.40
67147;DHT22;70072;52.036;5.558;2024-03-08T11:26:40;17.30;62.40
67147;DHT22;70072;52.036;5.558;2024-03-08T11:29:38;17.30;62.40
67147;DHT22;70072;52.036;5.558;2024-03-08T11:34:37;17.30;62.40
67147;DHT22;70072;52.036;5.558;2024-03-08T11:37:23;17.30;62.40
67147;DHT22;70072;52.036;5.558;2024-03-08T11:39:54;17.30;62.20
67147;DHT22;70072;52.036;5.558;2024-03-08T11:42:27;17.30;62.30
67147;DHT22;70072;52.036;5.558;2024-03-08T11:44:53;17.30;62.40
67147;DHT22;70072;52.036;5.558;2024-03-08T11:47:19;17.40;62.40
67147;DHT22;70072;52.036;5.558;2024-03-08T11:49:45;17.30;62.30
67147;DHT22;70072;52.036;5.558;2024-03-08T11:52:17;17.40;62.40
67147;DHT22;70072;52.036;5.558;2024-03-08T11:54:51;17.40;62.40
67147;DHT22;70072;52.036;5.558;2024-03-08T11:57:25;17.40;62.30
67147;DHT22;70072;52.036;5.558;2024-03-08T11:59:51;17.40;62.30
67147;DHT22;70072;52.036;5.558;2024-03-08T12:02:17;17.40;62.40
67147;DHT22;70072;52.036;5.558;2024-03-08T12:04:44;17.40;62.40
67147;DHT22;70072;52.036;5.558;2024-03-08T12:07:12;17.40;62.30
67147;DHT22;70072;52.036;5.558;2024-03-08T12:09:40;17.40;62.30
67147;DHT22;70072;52.036;5.558;2024-03-08T12:12:08;17.40;62.30
67147;DHT22;70072;52.036;5.558;2024-03-08T12:14:37;17.40;62.30
67147;DHT22;70072;52.036;5.558;2024-03-08T12:17:03;17.40;62.30
67147;DHT22;70072;52.036;5.558;2024-03-08T12:19:33;17.40;62.30
67147;DHT22;70072;52.036;5.558;2024-03-08T12:22:07;17.40;62.30
67147;DHT22;70072;52.036;5.558;2024-03-08T12:24:35;17.40;62.10
67147;DHT22;70072;52.036;5.558;2024-03-08T12:27:18;17.40;62.20
67147;DHT22;70072;52.036;5.558;2024-03-08T12:29:43;17.50;62.00
67147;DHT22;70072;52.036;5.558;2024-03-08T12:32:10;17.40;62.30
67147;DHT22;70072;52.036;5.558;2024-03-08T12:34:37;17.40;62.20
67147;DHT22;70072;52.036;5.558;2024-03-08T12:37:05;17.50;62.20
67147;DHT22;70072;52.036;5.558;2024-03-08T12:39:34;17.40;62.20
67147;DHT22;70072;52.036;5.558;2024-03-08T12:42:00;17.50;62.20
67147;DHT22;70072;52.036;5.558;2024-03-08T12:44:26;17.50;62.20
67147;DHT22;70072;52.036;5.558;2024-03-08T12:46:53;17.50;62.20
67147;DHT22;70072;52.036;5.558;2024-03-08T12:49:19;17.50;62.20
67147;DHT22;70072;52.036;5.558;2024-03-08T12:51:47;17.50;62.10
67147;DHT22;70072;52.036;5.558;2024-03-08T12:54:13;17.50;62.10
67147;DHT22;70072;52.036;5.558;2024-03-08T12:56:39;17.50;62.20
67147;DHT22;70072;52.036;5.558;2024-03-08T12:59:06;17.50;62.00
67147;DHT22;70072;52.036;5.558;2024-03-08T13:01:38;17.50;62.10
67147;DHT22;70072;52.036;5.558;2024-03-08T13:04:05;17.50;62.10
67147;DHT22;70072;52.036;5.558;2024-03-08T13:06:32;17.50;62.00
67147;DHT22;70072;52.036;5.558;2024-03-08T13:08:58;17.60;62.10
67147;DHT22;70072;52.036;5.558;2024-03-08T13:11:26;17.60;62.10
67147;DHT22;70072;52.036;5.558;2024-03-08T13:13:54;17.50;62.00
67147;DHT22;70072;52.036;5.558;2024-03-08T13:16:19;17.50;62.00
67147;DHT22;70072;52.036;5.558;2024-03-08T13:18:48;17.60;62.00
67147;DHT22;70072;52.036;5.558;2024-03-08T13:21:14;17.60;62.00
67147;DHT22;70072;52.036;5.558;2024-03-08T13:23:41;17.60;62.00
67147;DHT22;70072;52.036;5.558;2024-03-08T13:26:12;17.60;62.00
67147;DHT22;70072;52.036;5.558;2024-03-08T13:28:45;17.60;61.90
67147;DHT22;70072;52.036;5.558;2024-03-08T13:31:11;17.60;61.90
67147;DHT22;70072;52.036;5.558;2024-03-08T13:33:37;17.60;62.00
67147;DHT22;70072;52.036;5.558;2024-03-08T13:36:05;17.60;61.90
67147;DHT22;70072;52.036;5.558;2024-03-08T13:38:32;17.60;61.90
67147;DHT22;70072;52.036;5.558;2024-03-08T13:40:59;17.60;61.90
67147;DHT22;70072;52.036;5.558;2024-03-08T13:43:26;17.70;61.90
67147;DHT22;70072;52.036;5.558;2024-03-08T13:45:54;17.60;61.80
67147;DHT22;70072;52.036;5.558;2024-03-08T13:48:20;17.60;61.80
67147;DHT22;70072;52.036;5.558;2024-03-08T13:50:48;17.70;61.90
67147;DHT22;70072;52.036;5.558;2024-03-08T13:53:14;17.70;61.80
67147;DHT22;70072;52.036;5.558;2024-03-08T13:55:40;17.70;61.80
67147;DHT22;70072;52.036;5.558;2024-03-08T13:58:06;17.80;61.80
67147;DHT22;70072;52.036;5.558;2024-03-08T14:00:35;17.80;61.80
67147;DHT22;70072;52.036;5.558;2024-03-08T14:03:01;17.80;61.70
67147;DHT22;70072;52.036;5.558;2024-03-08T14:05:31;17.80;61.70
67147;DHT22;70072;52.036;5.558;2024-03-08T14:08:03;17.90;61.70
67147;DHT22;70072;52.036;5.558;2024-03-08T14:10:29;17.90;61.70
67147;DHT22;70072;52.036;5.558;2024-03-08T14:12:57;17.90;61.60
67147;DHT22;70072;52.036;5.558;2024-03-08T14:15:25;18.00;61.60
67147;DHT22;70072;52.036;5.558;2024-03-08T14:17:55;18.00;61.60
67147;DHT22;70072;52.036;5.558;2024-03-08T14:20:21;18.00;61.50
67147;DHT22;70072;52.036;5.558;2024-03-08T14:22:56;18.00;61.50
67147;DHT22;70072;52.036;5.558;2024-03-08T14:25:25;18.10;61.40
67147;DHT22;70072;52.036;5.558;2024-03-08T14:27:52;18.10;61.40
67147;DHT22;70072;52.036;5.558;2024-03-08T14:30:26;18.20;61.40
67147;DHT22;70072;52.036;5.558;2024-03-08T14:33:07;18.20;61.30
67147;DHT22;70072;52.036;5.558;2024-03-08T14:35:36;18.20;61.10
67147;DHT22;70072;52.036;5.558;2024-03-08T14:38:02;18.20;61.30
67147;DHT22;70072;52.036;5.558;2024-03-08T14:40:28;18.30;61.20
67147;DHT22;70072;52.036;5.558;2024-03-08T14:42:56;18.30;61.20
67147;DHT22;70072;52.036;5.558;2024-03-08T14:45:24;18.40;61.10
67147;DHT22;70072;52.036;5.558;2024-03-08T14:47:51;18.40;61.10
67147;DHT22;70072;52.036;5.558;2024-03-08T14:50:18;18.40;61.10
67147;DHT22;70072;52.036;5.558;2024-03-08T14:52:44;18.50;61.10
67147;DHT22;70072;52.036;5.558;2024-03-08T14:55:11;18.50;61.00
67147;DHT22;70072;52.036;5.558;2024-03-08T14:57:43;18.50;61.60
67147;DHT22;70072;52.036;5.558;2024-03-08T15:00:14;18.50;60.80
67147;DHT22;70072;52.036;5.558;2024-03-08T15:02:44;18.50;60.90
67147;DHT22;70072;52.036;5.558;2024-03-08T15:05:16;18.60;60.90
67147;DHT22;70072;52.036;5.558;2024-03-08T15:07:46;18.60;60.80
67147;DHT22;70072;52.036;5.558;2024-03-08T15:10:12;18.70;60.80
67147;DHT22;70072;52.036;5.558;2024-03-08T15:12:41;18.70;60.70
67147;DHT22;70072;52.036;5.558;2024-03-08T15:15:12;18.70;60.70
67147;DHT22;70072;52.036;5.558;2024-03-08T15:17:42;18.70;60.70
67147;DHT22;70072;52.036;5.558;2024-03-08T15:20:08;18.80;60.70
67147;DHT22;70072;52.036;5.558;2024-03-08T15:22:49;18.80;61.30
67147;DHT22;70072;52.036;5.558;2024-03-08T15:25:15;18.80;60.60
67147;DHT22;70072;52.036;5.558;2024-03-08T15:27:52;18.80;60.60
67147;DHT22;70072;52.036;5.558;2024-03-08T15:30:18;18.80;60.60
67147;DHT22;70072;52.036;5.558;2024-03-08T15:32:48;18.90;60.60
67147;DHT22;70072;52.036;5.558;2024-03-08T15:35:16;18.90;60.50
67147;DHT22;70072;52.036;5.558;2024-03-08T15:37:43;18.90;60.40
67147;DHT22;70072;52.036;5.558;2024-03-08T15:40:12;18.90;60.40
67147;DHT22;70072;52.036;5.558;2024-03-08T15:42:59;19.00;60.30
67147;DHT22;70072;52.036;5.558;2024-03-08T15:45:25;19.00;60.10
67147;DHT22;70072;52.036;5.558;2024-03-08T15:47:52;19.00;60.40